Latest Coastal Weather Observations for Cape Jaffa

IDS60701

Issued at 3:31 pm CDT Monday 6 December 2021 (issued every 10 minutes, with the page automatically refreshed every 10 minutes)

About coastal observations | Map of coastal stations | Coastal observations for SA | Marine services | Other Formats
Station Details ID: 026095 Name: THE LIMESTONE Lat: -36.97 Lon: 139.72 Height: 17.0 m
Data from the previous 72 hours. | See also: Recent months at Cape Jaffa
Date/Time
CDT
Wind Sea
Height
m
Swell Vis
km
Cloud Weather Temp
°C
Press
MSL
hPa
Rain since
9am
mm
Dir  Spd
kts
Gust
kts
Height
m
Period
s
Dir
06/03:30pm WSW 17 22 - - - - - - - 18.4 1011.8 0.0
06/03:00pm SW 16 22 - - - - - - - 18.4 1011.6 0.0
06/02:30pm WSW 16 20 - - - - - - - 18.9 1011.5 0.0
06/02:00pm WSW 15 20 - - - - - - - 18.5 1011.5 0.0
06/01:30pm WSW 12 17 - - - - - - - 18.5 1011.6 0.0
06/01:00pm WSW 15 19 - - - - - - - 18.4 1011.9 0.0
06/12:30pm WSW 13 16 - - - - - - - 18.1 1011.9 0.0
06/12:00pm W 10 14 - - - - - - - 18.8 1011.8 0.0
06/11:30am W 10 12 - - - - - - - 19.0 1011.9 0.0
06/11:00am WNW 10 13 - - - - - - - 19.0 1012.0 0.0
06/10:30am NW 9 12 - - - - - - - 19.3 1012.1 0.0
06/10:00am NNW 9 11 - - - - - - - 18.3 1012.2 0.0
06/09:30am NNW 7 10 - - - - - - - 17.2 1012.2 0.0
06/09:00am NNW 7 9 - - - - - - - 17.3 1012.5 0.0
06/08:30am NNW 5 7 - - - - - - - 16.1 1012.5 0.0
06/08:00am N 3 5 - - - - - - - 15.0 1012.8 0.0
06/07:30am CALM 0 0 - - - - - - - 12.7 1012.7 0.0
06/07:00am NNW 2 4 - - - - - - - 11.1 1012.8 0.0
06/06:30am ENE 4 5 - - - - - - - 9.6 1012.4 0.0
06/06:00am E 5 6 - - - - - - - 9.5 1012.1 0.0
06/05:30am E 6 8 - - - - - - - 9.9 1011.9 0.0
06/05:00am ESE 7 9 - - - - - - - 10.1 1011.8 0.0
06/04:30am ESE 6 9 - - - - - - - 10.0 1012.0 0.0
06/04:00am ESE 6 8 - - - - - - - 9.3 1012.2 0.0
06/03:30am ESE 6 7 - - - - - - - 9.2 1012.5 0.0
06/03:00am ESE 5 7 - - - - - - - 9.7 1012.8 0.0
06/02:30am ESE 5 7 - - - - - - - 9.8 1012.9 0.0
06/02:00am ESE 7 9 - - - - - - - 10.3 1013.3 0.0
06/01:30am ESE 8 12 - - - - - - - 10.8 1013.8 0.0
06/01:00am SE 9 13 - - - - - - - 11.4 1014.2 0.0
06/12:30am SE 9 12 - - - - - - - 11.7 1014.6 0.0
06/12:00am SE 7 10 - - - - - - - 12.1 1015.1 0.0
 
Date/Time
CDT
Wind Sea
Height
m
Swell Vis
km
Cloud Weather Temp
°C
Press
MSL
hPa
Rain since
9am
mm
Dir  Spd
kts
Gust
kts
Height
m
Period
s
Dir
05/11:30pm SSE 6 8 - - - - - - - 12.0 1015.7 0.0
05/11:00pm SSE 7 11 - - - - - - - 12.7 1016.0 0.0
05/10:30pm SSE 7 10 - - - - - - - 12.9 1016.1 0.0
05/10:00pm S 10 12 - - - - - - - 13.5 1016.3 0.0
05/09:30pm S 11 15 - - - - - - - 13.8 1016.6 0.0
05/09:00pm S 12 16 - - - - - - - 14.0 1016.6 0.0
05/08:30pm S 12 16 - - - - - - - 14.3 1016.8 0.0
05/08:00pm S 15 19 - - - - - - - 14.7 1016.7 0.0
05/07:30pm SSW 16 20 - - - - - - - 14.9 1016.6 0.0
05/07:00pm SSW 18 23 - - - - - - - 15.3 1016.6 0.0
05/06:30pm SSW 19 23 - - - - - - - 16.0 1016.7 0.0
05/06:00pm SSW 18 21 - - - - - - - 16.4 1017.1 0.0
05/05:30pm SSW 18 22 - - - - - - - 16.9 1017.4 0.0
05/05:00pm SSW 20 23 - - - - - - - 17.0 1017.5 0.0
05/04:30pm SSW 19 24 - - - - - - - 17.5 1017.6 0.0
05/04:00pm SSW 19 24 - - - - - - - 17.4 1017.7 0.0
05/03:30pm SSW 19 24 - - - - - - - 17.6 1018.0 0.0
05/03:00pm SSW 20 25 - - - - - - - 17.4 1018.2 0.0
05/02:30pm SSW 20 24 - - - - - - - 18.0 1018.7 0.0
05/02:00pm SSW 19 24 - - - - - - - 18.1 1018.8 0.0
05/01:30pm SSW 20 25 - - - - - - - 18.1 1018.9 0.0
05/01:00pm SSW 19 23 - - - - - - - 17.6 1019.3 0.0
05/12:30pm SSW 17 21 - - - - - - - 17.3 1019.6 0.0
05/12:00pm SSW 16 21 - - - - - - - 18.0 1020.0 0.0
05/11:30am SSW 15 19 - - - - - - - 16.9 1020.4 0.0
05/11:00am S 7 13 - - - - - - - 18.1 1020.9 0.0
05/10:30am SSE 7 11 - - - - - - - 17.8 1021.4 0.0
05/10:00am SSE 6 10 - - - - - - - 16.7 1021.9 0.0
05/09:30am SE 5 10 - - - - - - - 15.5 1022.1 0.0
05/09:00am E 5 10 - - - - - - - 15.2 1022.3 0.0
05/08:30am E 7 9 - - - - - - - 15.1 1022.3 0.0
05/08:00am E 7 9 - - - - - - - 13.9 1022.3 0.0
05/07:30am E 8 10 - - - - - - - 12.1 1022.1 0.0
05/07:00am E 5 7 - - - - - - - 10.3 1021.9 0.0
05/06:30am E 4 5 - - - - - - - 9.0 1021.9 0.0
05/06:00am ESE 5 5 - - - - - - - 8.4 1021.6 0.0
05/05:30am ESE 4 6 - - - - - - - 8.5 1021.1 0.0
05/05:00am ESE 5 7 - - - - - - - 8.6 1020.6 0.0
05/04:30am ESE 6 7 - - - - - - - 8.7 1020.8 0.0
05/04:00am ESE 5 7 - - - - - - - 9.1 1020.9 0.0
05/03:30am ESE 6 8 - - - - - - - 9.5 1021.0 0.0
05/03:00am ESE 4 6 - - - - - - - 9.6 1021.4 0.0
05/02:30am ESE 4 7 - - - - - - - 10.0 1021.5 0.0
05/02:00am SE 4 5 - - - - - - - 10.7 1021.8 0.0
05/01:30am SSE 7 9 - - - - - - - 11.8 1022.0 0.0
05/01:00am SSE 7 10 - - - - - - - 11.9 1022.1 0.0
05/12:30am SSE 8 11 - - - - - - - 12.4 1022.6 0.0
05/12:00am SSE 7 9 - - - - - - - 12.7 1022.7 0.0
 
Date/Time
CDT
Wind Sea
Height
m
Swell Vis
km
Cloud Weather Temp
°C
Press
MSL
hPa
Rain since
9am
mm
Dir  Spd
kts
Gust
kts
Height
m
Period
s
Dir
04/11:30pm SSE 6 9 - - - - - - - 13.6 1022.9 0.0
04/11:00pm SSE 8 13 - - - - - - - 14.7 1022.6 0.0
04/10:30pm SSE 7 11 - - - - - - - 14.7 1022.7 0.0
04/10:00pm SSE 5 8 - - - - - - - 14.0 1022.6 0.0
04/09:30pm SSE 7 10 - - - - - - - 14.8 1022.4 0.0
04/09:00pm SSE 8 11 - - - - - - - 14.9 1022.3 0.0
04/08:30pm S 8 11 - - - - - - - 15.0 1022.2 0.0
04/08:00pm S 9 11 - - - - - - - 14.3 1022.2 0.0
04/07:30pm SSW 11 13 - - - - - - - 15.7 1022.2 0.0
04/07:00pm SSW 11 14 - - - - - - - 15.7 1022.1 0.0
04/06:30pm SSW 12 16 - - - - - - - 16.2 1021.8 0.0
04/06:00pm SSW 12 15 - - - - - - - 17.0 1021.6 0.0
04/05:30pm SSW 12 16 - - - - - - - 17.1 1021.4 0.0
04/05:00pm SSW 12 15 - - - - - - - 17.0 1021.7 0.0
04/04:30pm SSW 12 15 - - - - - - - 16.9 1021.7 0.0
04/04:00pm SSW 13 18 - - - - - - - 17.4 1022.0 0.0
04/03:30pm SSW 14 18 - - - - - - - 18.2 1022.0 0.0
04/03:00pm SSW 16 19 - - - - - - - 17.8 1022.2 0.0
04/02:30pm SSW 16 20 - - - - - - - 17.3 1022.2 0.0
04/02:00pm SSW 15 19 - - - - - - - 17.4 1022.4 0.0
04/01:30pm SSW 16 21 - - - - - - - 16.0 1022.6 0.0
04/01:00pm SW 12 18 - - - - - - - 17.5 1022.6 0.0
04/12:30pm SW 12 17 - - - - - - - 17.9 1022.9 0.0
04/12:00pm SW 11 15 - - - - - - - 17.5 1022.9 0.0
04/11:30am SW 11 16 - - - - - - - 17.2 1023.1 0.0
04/11:00am SSW 12 16 - - - - - - - 17.5 1023.0 0.0
04/10:30am SSW 12 16 - - - - - - - 16.6 1022.9 0.0
04/10:00am SW 12 19 - - - - - - - 14.6 1022.9 0.0
04/09:30am SW 12 17 - - - - - - - 13.8 1022.8 0.0
04/09:00am SW 13 16 - - - - - - - 16.9 1022.3 0.0
04/08:30am SW 13 18 - - - - - - - 16.6 1022.1 0.0
04/08:00am SW 13 18 - - - - - - - 16.1 1021.6 0.0
04/07:30am SW 15 19 - - - - - - - 14.7 1021.3 0.0
04/07:00am SW 13 18 - - - - - - - 14.8 1021.0 0.0
04/06:30am SW 12 16 - - - - - - - 14.6 1020.7 0.0
04/06:00am SW 12 17 - - - - - - - 14.4 1020.5 0.0
04/05:30am SW 11 15 - - - - - - - 14.2 1020.5 0.0
04/05:00am SW 13 17 - - - - - - - 13.7 1020.3 0.0
04/04:30am SW 13 18 - - - - - - - 14.1 1020.1 0.0
04/04:00am SW 12 15 - - - - - - - 14.2 1020.1 0.0
04/03:30am SW 12 17 - - - - - - - 14.2 1020.1 0.0
04/03:00am SW 13 17 - - - - - - - 14.1 1020.2 0.0
04/02:30am WSW 14 19 - - - - - - - 14.1 1020.3 0.0
04/02:00am WSW 6 8 - - - - - - - 13.8 1020.5 0.0
04/01:30am SW 9 13 - - - - - - - 13.8 1020.7 0.0
04/01:00am SW 11 15 - - - - - - - 13.6 1020.9 0.0
04/12:30am SW 9 12 - - - - - - - 13.3 1021.0 0.0
04/12:00am SW 10 14 - - - - - - - 13.6 1021.2 0.0
 
Date/Time
CDT
Wind Sea
Height
m
Swell Vis
km
Cloud Weather Temp
°C
Press
MSL
hPa
Rain since
9am
mm
Dir  Spd
kts
Gust
kts
Height
m
Period
s
Dir
03/11:30pm SW 10 13 - - - - - - - 13.8 1021.3 0.0
03/11:00pm SW 8 12 - - - - - - - 13.7 1021.4 0.0
03/10:30pm SW 9 12 - - - - - - - 13.7 1021.5 0.0
03/10:00pm SSW 11 15 - - - - - - - 13.9 1021.5 0.0
03/09:30pm SSW 11 17 - - - - - - - 14.2 1021.3 0.0
03/09:00pm SW 11 16 - - - - - - - 13.9 1021.2 0.0
03/08:30pm SSW 10 15 - - - - - - - 13.8 1021.0 0.0
03/08:00pm SSW 12 16 - - - - - - - 13.9 1020.8 0.0
03/07:30pm SSW 11 16 - - - - - - - 14.6 1020.5 0.0
03/07:00pm SSW 12 15 - - - - - - - 15.3 1020.5 0.0
03/06:30pm SSW 13 17 - - - - - - - 15.7 1020.3 0.0
03/06:00pm SSW 14 19 - - - - - - - 16.2 1020.2 0.0
03/05:30pm SSW 15 19 - - - - - - - 16.7 1020.2 0.0
03/05:00pm SSW 16 20 - - - - - - - 17.0 1020.4 0.0
03/04:30pm SSW 15 20 - - - - - - - 17.6 1020.6 0.0
03/04:00pm SSW 17 22 - - - - - - - 16.8 1020.7 0.0

Other formats

Comma delimited format used in spreadsheet applications
http://www.bom.gov.au/fwo/IDS60701/IDS60701.94813.axf

JavaScript Object Notation format (JSON) in row-major order
http://www.bom.gov.au/fwo/IDS60701/IDS60701.94813.json

Data quality

Most of these data are generated automatically and are frequently updated. Quality checks on data are not normally performed. It is possible for incorrect values to appear. Refer to information at About Latest Weather Observations and please check the disclaimer before using these data.